sensor_id;sensor_type;location;lat;lon;timestamp;pressure;altitude;pressure_sealevel;temperature;humidity
4705;BME280;2366;51.332;6.610;2022-11-15T00:00:49;100776.16;;;12.87;70.10
4705;BME280;2366;51.332;6.610;2022-11-15T00:03:20;100783.81;;;12.92;70.26
4705;BME280;2366;51.332;6.610;2022-11-15T00:05:47;100778.50;;;12.92;70.16
4705;BME280;2366;51.332;6.610;2022-11-15T00:08:13;100774.03;;;12.92;70.48
4705;BME280;2366;51.332;6.610;2022-11-15T00:10:38;100776.81;;;12.91;70.29
4705;BME280;2366;51.332;6.610;2022-11-15T00:13:09;100785.31;;;12.96;70.46
4705;BME280;2366;51.332;6.610;2022-11-15T00:15:36;100778.91;;;12.99;70.27
4705;BME280;2366;51.332;6.610;2022-11-15T00:18:03;100781.69;;;12.97;70.53
4705;BME280;2366;51.332;6.610;2022-11-15T00:20:28;100778.91;;;12.99;70.51
4705;BME280;2366;51.332;6.610;2022-11-15T00:22:54;100768.25;;;12.99;70.97
4705;BME280;2366;51.332;6.610;2022-11-15T00:25:19;100770.72;;;13.02;71.18
4705;BME280;2366;51.332;6.610;2022-11-15T00:27:44;100765.91;;;13.07;71.21
4705;BME280;2366;51.332;6.610;2022-11-15T00:30:11;100776.38;;;13.10;70.99
4705;BME280;2366;51.332;6.610;2022-11-15T00:32:36;100770.81;;;13.13;71.11
4705;BME280;2366;51.332;6.610;2022-11-15T00:35:01;100762.50;;;13.18;71.26
4705;BME280;2366;51.332;6.610;2022-11-15T00:37:27;100764.41;;;13.15;71.15
4705;BME280;2366;51.332;6.610;2022-11-15T00:39:52;100760.56;;;13.20;71.60
4705;BME280;2366;51.332;6.610;2022-11-15T00:42:17;100758.66;;;13.22;71.70
4705;BME280;2366;51.332;6.610;2022-11-15T00:44:43;100758.66;;;13.22;71.76
4705;BME280;2366;51.332;6.610;2022-11-15T00:47:08;100762.91;;;13.24;72.01
4705;BME280;2366;51.332;6.610;2022-11-15T00:49:33;100768.81;;;13.29;71.92
4705;BME280;2366;51.332;6.610;2022-11-15T00:51:59;100766.97;;;13.30;72.06
4705;BME280;2366;51.332;6.610;2022-11-15T00:54:24;100756.09;;;13.33;72.07
4705;BME280;2366;51.332;6.610;2022-11-15T00:56:50;100755.91;;;13.36;72.18
4705;BME280;2366;51.332;6.610;2022-11-15T00:59:15;100755.75;;;13.38;72.43
4705;BME280;2366;51.332;6.610;2022-11-15T01:01:40;100757.13;;;13.43;72.10
4705;BME280;2366;51.332;6.610;2022-11-15T01:04:05;100757.66;;;13.48;72.35
4705;BME280;2366;51.332;6.610;2022-11-15T01:06:31;100754.97;;;13.48;72.27
4705;BME280;2366;51.332;6.610;2022-11-15T01:08:56;100749.56;;;13.50;72.03
4705;BME280;2366;51.332;6.610;2022-11-15T01:11:22;100767.34;;;13.49;72.14
4705;BME280;2366;51.332;6.610;2022-11-15T01:13:47;100763.63;;;13.52;72.15
4705;BME280;2366;51.332;6.610;2022-11-15T01:16:15;100758.78;;;13.57;72.20
4705;BME280;2366;51.332;6.610;2022-11-15T01:18:42;100753.47;;;13.57;72.43
4705;BME280;2366;51.332;6.610;2022-11-15T01:21:14;100755.78;;;13.62;72.18
4705;BME280;2366;51.332;6.610;2022-11-15T01:23:39;100756.31;;;13.67;72.34
4705;BME280;2366;51.332;6.610;2022-11-15T01:26:07;100749.16;;;13.67;72.09
4705;BME280;2366;51.332;6.610;2022-11-15T01:28:34;100744.69;;;13.68;72.06
4705;BME280;2366;51.332;6.610;2022-11-15T01:31:13;100746.41;;;13.69;72.21
4705;BME280;2366;51.332;6.610;2022-11-15T01:33:38;100733.91;;;13.69;72.09
4705;BME280;2366;51.332;6.610;2022-11-15T01:36:05;100743.75;;;13.69;72.34
4705;BME280;2366;51.332;6.610;2022-11-15T01:38:31;100741.81;;;13.71;72.23
4705;BME280;2366;51.332;6.610;2022-11-15T01:40:56;100739.50;;;13.66;72.25
4705;BME280;2366;51.332;6.610;2022-11-15T01:43:22;100734.47;;;13.62;72.72
4705;BME280;2366;51.332;6.610;2022-11-15T01:45:58;100739.34;;;13.68;72.73
4705;BME280;2366;51.332;6.610;2022-11-15T01:48:30;100743.75;;;13.69;72.98
4705;BME280;2366;51.332;6.610;2022-11-15T01:50:57;100732.34;;;13.67;73.05
4705;BME280;2366;51.332;6.610;2022-11-15T01:53:24;100726.16;;;13.66;73.05
4705;BME280;2366;51.332;6.610;2022-11-15T01:55:51;100733.06;;;13.69;73.24
4705;BME280;2366;51.332;6.610;2022-11-15T01:58:17;100733.56;;;13.74;73.01
4705;BME280;2366;51.332;6.610;2022-11-15T02:00:43;100722.91;;;13.74;73.00
4705;BME280;2366;51.332;6.610;2022-11-15T02:03:08;100724.63;;;13.75;72.86
4705;BME280;2366;51.332;6.610;2022-11-15T02:05:35;100721.22;;;13.73;73.13
4705;BME280;2366;51.332;6.610;2022-11-15T02:08:01;100713.34;;;13.71;73.08
4705;BME280;2366;51.332;6.610;2022-11-15T02:10:27;100714.44;;;13.69;73.16
4705;BME280;2366;51.332;6.610;2022-11-15T02:12:54;100710.78;;;13.70;73.48
4705;BME280;2366;51.332;6.610;2022-11-15T02:15:21;100707.19;;;13.71;73.74
4705;BME280;2366;51.332;6.610;2022-11-15T02:18:09;100701.41;;;13.77;73.32
4705;BME280;2366;51.332;6.610;2022-11-15T02:20:58;100707.91;;;13.73;73.48
4705;BME280;2366;51.332;6.610;2022-11-15T02:23:45;100706.59;;;13.79;73.71
4705;BME280;2366;51.332;6.610;2022-11-15T02:26:39;100706.97;;;13.85;73.75
4705;BME280;2366;51.332;6.610;2022-11-15T02:29:26;100703.84;;;13.91;73.52
4705;BME280;2366;51.332;6.610;2022-11-15T02:32:20;100707.88;;;13.97;73.41
4705;BME280;2366;51.332;6.610;2022-11-15T02:35:01;100703.50;;;13.96;73.19
4705;BME280;2366;51.332;6.610;2022-11-15T02:37:56;100701.47;;;14.00;73.21
4705;BME280;2366;51.332;6.610;2022-11-15T02:43:14;100696.13;;;14.00;72.94
4705;BME280;2366;51.332;6.610;2022-11-15T02:46:14;100693.69;;;13.96;73.11
4705;BME280;2366;51.332;6.610;2022-11-15T02:48:42;100689.97;;;13.99;73.38
4705;BME280;2366;51.332;6.610;2022-11-15T02:51:08;100690.34;;;14.06;73.41
4705;BME280;2366;51.332;6.610;2022-11-15T02:53:35;100696.16;;;14.11;73.19
4705;BME280;2366;51.332;6.610;2022-11-15T02:56:01;100689.00;;;14.11;73.10
4705;BME280;2366;51.332;6.610;2022-11-15T02:58:45;100687.81;;;14.15;73.41
4705;BME280;2366;51.332;6.610;2022-11-15T03:03:59;100694.25;;;14.24;73.38
4705;BME280;2366;51.332;6.610;2022-11-15T03:06:50;100693.16;;;14.27;72.90
4705;BME280;2366;51.332;6.610;2022-11-15T03:09:35;100688.44;;;14.30;73.07
4705;BME280;2366;51.332;6.610;2022-11-15T03:12:11;100684.59;;;14.34;73.18
4705;BME280;2366;51.332;6.610;2022-11-15T03:17:32;100679.97;;;14.36;72.96
4705;BME280;2366;51.332;6.610;2022-11-15T03:20:03;100678.66;;;14.42;73.11
4705;BME280;2366;51.332;6.610;2022-11-15T03:22:36;100674.41;;;14.39;73.06
4705;BME280;2366;51.332;6.610;2022-11-15T03:25:06;100679.63;;;14.41;72.58
4705;BME280;2366;51.332;6.610;2022-11-15T03:27:38;100677.22;;;14.49;73.33
4705;BME280;2366;51.332;6.610;2022-11-15T03:30:06;100674.69;;;14.59;72.86
4705;BME280;2366;51.332;6.610;2022-11-15T03:32:39;100676.41;;;14.60;72.82
4705;BME280;2366;51.332;6.610;2022-11-15T03:35:22;100669.97;;;14.63;72.69
4705;BME280;2366;51.332;6.610;2022-11-15T03:37:58;100665.47;;;14.63;72.65
4705;BME280;2366;51.332;6.610;2022-11-15T03:40:35;100666.09;;;14.67;72.24
4705;BME280;2366;51.332;6.610;2022-11-15T03:45:58;100659.75;;;14.68;72.74
4705;BME280;2366;51.332;6.610;2022-11-15T03:48:29;100661.09;;;14.73;72.76
4705;BME280;2366;51.332;6.610;2022-11-15T03:50:56;100651.38;;;14.72;72.48
4705;BME280;2366;51.332;6.610;2022-11-15T03:53:21;100655.88;;;14.72;72.77
4705;BME280;2366;51.332;6.610;2022-11-15T03:55:46;100657.59;;;14.73;73.17
4705;BME280;2366;51.332;6.610;2022-11-15T03:58:12;100656.25;;;14.78;72.88
4705;BME280;2366;51.332;6.610;2022-11-15T04:00:37;100656.84;;;14.82;72.90
4705;BME280;2366;51.332;6.610;2022-11-15T04:03:03;100650.69;;;14.82;72.83
4705;BME280;2366;51.332;6.610;2022-11-15T04:05:28;100647.63;;;14.86;72.62
4705;BME280;2366;51.332;6.610;2022-11-15T04:07:53;100650.19;;;14.88;72.60
4705;BME280;2366;51.332;6.610;2022-11-15T04:10:18;100648.47;;;14.87;72.81
4705;BME280;2366;51.332;6.610;2022-11-15T04:12:45;100648.25;;;14.90;72.75
4705;BME280;2366;51.332;6.610;2022-11-15T04:15:15;100651.03;;;14.88;72.71
4705;BME280;2366;51.332;6.610;2022-11-15T04:17:42;100650.41;;;14.85;72.65
4705;BME280;2366;51.332;6.610;2022-11-15T04:22:55;100655.28;;;14.91;72.82
4705;BME280;2366;51.332;6.610;2022-11-15T04:25:39;100656.84;;;14.93;72.68
4705;BME280;2366;51.332;6.610;2022-11-15T04:28:05;100656.72;;;14.95;72.88
4705;BME280;2366;51.332;6.610;2022-11-15T04:30:31;100646.03;;;14.95;72.69
4705;BME280;2366;51.332;6.610;2022-11-15T04:32:56;100646.28;;;14.92;72.64
4705;BME280;2366;51.332;6.610;2022-11-15T04:35:21;100657.34;;;14.98;72.95
4705;BME280;2366;51.332;6.610;2022-11-15T04:37:47;100653.56;;;15.01;72.84
4705;BME280;2366;51.332;6.610;2022-11-15T04:40:12;100657.91;;;15.02;72.73
4705;BME280;2366;51.332;6.610;2022-11-15T04:42:37;100645.56;;;15.01;72.50
4705;BME280;2366;51.332;6.610;2022-11-15T04:45:05;100651.84;;;15.00;72.95
4705;BME280;2366;51.332;6.610;2022-11-15T04:47:31;100653.41;;;15.03;72.90
4705;BME280;2366;51.332;6.610;2022-11-15T04:49:56;100654.28;;;15.03;72.52
4705;BME280;2366;51.332;6.610;2022-11-15T04:52:21;100651.75;;;15.02;73.00
4705;BME280;2366;51.332;6.610;2022-11-15T04:54:47;100652.00;;;14.98;72.98
4705;BME280;2366;51.332;6.610;2022-11-15T04:57:12;100654.41;;;15.02;72.90
4705;BME280;2366;51.332;6.610;2022-11-15T04:59:37;100647.50;;;14.99;73.02
4705;BME280;2366;51.332;6.610;2022-11-15T05:02:03;100648.34;;;14.99;73.03
4705;BME280;2366;51.332;6.610;2022-11-15T05:04:28;100641.19;;;15.00;73.01
4705;BME280;2366;51.332;6.610;2022-11-15T05:06:53;100649.44;;;14.97;73.14
4705;BME280;2366;51.332;6.610;2022-11-15T05:09:20;100642.88;;;15.01;73.27
4705;BME280;2366;51.332;6.610;2022-11-15T05:11:46;100646.66;;;14.98;73.05
4705;BME280;2366;51.332;6.610;2022-11-15T05:14:12;100650.03;;;15.00;72.95
4705;BME280;2366;51.332;6.610;2022-11-15T05:16:38;100647.25;;;15.02;72.74
4705;BME280;2366;51.332;6.610;2022-11-15T05:19:04;100642.00;;;15.00;72.91
4705;BME280;2366;51.332;6.610;2022-11-15T05:21:30;100647.25;;;15.02;72.99
4705;BME280;2366;51.332;6.610;2022-11-15T05:23:55;100645.78;;;14.98;72.87
4705;BME280;2366;51.332;6.610;2022-11-15T05:26:20;100638.28;;;15.03;73.08
4705;BME280;2366;51.332;6.610;2022-11-15T05:28:46;100644.56;;;15.02;72.90
4705;BME280;2366;51.332;6.610;2022-11-15T05:31:14;100633.31;;;14.98;72.87
4705;BME280;2366;51.332;6.610;2022-11-15T05:33:40;100637.06;;;14.96;73.24
4705;BME280;2366;51.332;6.610;2022-11-15T05:36:12;100633.88;;;15.02;73.34
4705;BME280;2366;51.332;6.610;2022-11-15T05:38:41;100631.22;;;15.02;73.04
4705;BME280;2366;51.332;6.610;2022-11-15T05:41:07;100635.72;;;15.02;73.14
4705;BME280;2366;51.332;6.610;2022-11-15T05:43:35;100635.09;;;14.98;73.39
4705;BME280;2366;51.332;6.610;2022-11-15T05:46:03;100635.00;;;14.99;73.16
4705;BME280;2366;51.332;6.610;2022-11-15T05:48:29;100629.78;;;14.98;73.06
4705;BME280;2366;51.332;6.610;2022-11-15T05:50:55;100631.00;;;14.94;73.43
4705;BME280;2366;51.332;6.610;2022-11-15T05:53:22;100629.41;;;14.91;73.38
4705;BME280;2366;51.332;6.610;2022-11-15T05:55:49;100628.56;;;14.91;73.56
4705;BME280;2366;51.332;6.610;2022-11-15T05:58:14;100628.31;;;14.94;73.51
4705;BME280;2366;51.332;6.610;2022-11-15T06:00:40;100629.19;;;14.94;73.33
4705;BME280;2366;51.332;6.610;2022-11-15T06:03:08;100631.88;;;14.94;73.65
4705;BME280;2366;51.332;6.610;2022-11-15T06:05:34;100645.78;;;14.98;73.27
4705;BME280;2366;51.332;6.610;2022-11-15T06:07:59;100639.88;;;14.94;73.63
4705;BME280;2366;51.332;6.610;2022-11-15T06:10:25;100641.66;;;14.94;73.59
4705;BME280;2366;51.332;6.610;2022-11-15T06:13:02;100644.47;;;14.92;73.66
4705;BME280;2366;51.332;6.610;2022-11-15T06:15:28;100644.34;;;14.94;73.65
4705;BME280;2366;51.332;6.610;2022-11-15T06:17:56;100640.94;;;14.92;73.69
4705;BME280;2366;51.332;6.610;2022-11-15T06:20:26;100646.53;;;14.89;74.03
4705;BME280;2366;51.332;6.610;2022-11-15T06:22:59;100655.53;;;14.88;73.93
4705;BME280;2366;51.332;6.610;2022-11-15T06:25:26;100646.66;;;14.87;73.94
4705;BME280;2366;51.332;6.610;2022-11-15T06:27:56;100650.31;;;14.86;74.00
4705;BME280;2366;51.332;6.610;2022-11-15T06:30:24;100653.09;;;14.85;74.34
4705;BME280;2366;51.332;6.610;2022-11-15T06:32:50;100657.47;;;14.86;74.25
4705;BME280;2366;51.332;6.610;2022-11-15T06:35:16;100646.78;;;14.86;74.15
4705;BME280;2366;51.332;6.610;2022-11-15T06:37:42;100652.34;;;14.83;74.16
4705;BME280;2366;51.332;6.610;2022-11-15T06:40:09;100655.03;;;14.83;74.52
4705;BME280;2366;51.332;6.610;2022-11-15T06:42:34;100657.31;;;14.87;74.31
4705;BME280;2366;51.332;6.610;2022-11-15T06:45:00;100654.53;;;14.89;74.42
4705;BME280;2366;51.332;6.610;2022-11-15T06:47:26;100651.88;;;14.89;74.28
4705;BME280;2366;51.332;6.610;2022-11-15T06:49:51;100650.19;;;14.88;74.15
4705;BME280;2366;51.332;6.610;2022-11-15T06:52:16;100658.06;;;14.89;74.29
4705;BME280;2366;51.332;6.610;2022-11-15T06:54:44;100653.59;;;14.90;73.79
4705;BME280;2366;51.332;6.610;2022-11-15T06:57:09;100661.94;;;14.85;74.44
4705;BME280;2366;51.332;6.610;2022-11-15T06:59:35;100666.31;;;14.86;74.42
4705;BME280;2366;51.332;6.610;2022-11-15T07:02:00;100669.81;;;14.87;74.45
4705;BME280;2366;51.332;6.610;2022-11-15T07:04:26;100679.66;;;14.86;74.50
4705;BME280;2366;51.332;6.610;2022-11-15T07:06:51;100677.94;;;14.85;74.50
4705;BME280;2366;51.332;6.610;2022-11-15T07:09:16;100680.50;;;14.87;73.96
4705;BME280;2366;51.332;6.610;2022-11-15T07:11:42;100686.31;;;14.92;73.50
4705;BME280;2366;51.332;6.610;2022-11-15T07:14:07;100690.59;;;14.94;73.17
4705;BME280;2366;51.332;6.610;2022-11-15T07:16:33;100694.56;;;14.89;73.70
4705;BME280;2366;51.332;6.610;2022-11-15T07:18:58;100710.13;;;14.95;73.69
4705;BME280;2366;51.332;6.610;2022-11-15T07:21:24;100701.84;;;14.98;73.42
4705;BME280;2366;51.332;6.610;2022-11-15T07:23:49;100713.50;;;14.97;73.18
4705;BME280;2366;51.332;6.610;2022-11-15T07:26:14;100716.53;;;14.92;73.26
4705;BME280;2366;51.332;6.610;2022-11-15T07:28:40;100721.00;;;14.92;73.16
4705;BME280;2366;51.332;6.610;2022-11-15T07:31:07;100736.06;;;14.93;73.45
4705;BME280;2366;51.332;6.610;2022-11-15T07:33:33;100733.88;;;14.75;74.29
4705;BME280;2366;51.332;6.610;2022-11-15T07:36:00;100737.88;;;14.58;75.62
4705;BME280;2366;51.332;6.610;2022-11-15T07:38:27;100743.38;;;14.44;76.90
4705;BME280;2366;51.332;6.610;2022-11-15T07:41:01;100743.13;;;14.36;76.88
4705;BME280;2366;51.332;6.610;2022-11-15T07:43:27;100748.59;;;14.34;77.56
4705;BME280;2366;51.332;6.610;2022-11-15T07:45:56;100747.66;;;14.11;77.67
4705;BME280;2366;51.332;6.610;2022-11-15T07:48:24;100750.56;;;14.08;78.08
4705;BME280;2366;51.332;6.610;2022-11-15T07:50:50;100755.72;;;13.98;78.72
4705;BME280;2366;51.332;6.610;2022-11-15T07:53:15;100762.97;;;13.96;79.00
4705;BME280;2366;51.332;6.610;2022-11-15T07:55:41;100752.91;;;13.89;79.30
4705;BME280;2366;51.332;6.610;2022-11-15T07:58:11;100754.72;;;13.88;79.66
4705;BME280;2366;51.332;6.610;2022-11-15T08:00:37;100753.53;;;13.92;80.10
4705;BME280;2366;51.332;6.610;2022-11-15T08:03:05;100762.28;;;13.94;80.02
4705;BME280;2366;51.332;6.610;2022-11-15T08:05:31;100763.50;;;14.02;80.28
4705;BME280;2366;51.332;6.610;2022-11-15T08:07:57;100760.84;;;14.02;79.84
4705;BME280;2366;51.332;6.610;2022-11-15T08:10:23;100763.06;;;14.08;80.33
4705;BME280;2366;51.332;6.610;2022-11-15T08:13:06;100759.19;;;14.12;80.21
4705;BME280;2366;51.332;6.610;2022-11-15T08:15:32;100755.31;;;14.16;79.88
4705;BME280;2366;51.332;6.610;2022-11-15T08:18:01;100756.78;;;14.20;79.90
4705;BME280;2366;51.332;6.610;2022-11-15T08:20:28;100757.78;;;14.30;80.12
4705;BME280;2366;51.332;6.610;2022-11-15T08:23:01;100755.00;;;14.32;79.25
4705;BME280;2366;51.332;6.610;2022-11-15T08:25:28;100755.59;;;14.35;79.73
4705;BME280;2366;51.332;6.610;2022-11-15T08:27:55;100746.66;;;14.48;79.76
4705;BME280;2366;51.332;6.610;2022-11-15T08:30:21;100742.00;;;14.63;78.96
4705;BME280;2366;51.332;6.610;2022-11-15T08:32:48;100742.88;;;14.86;78.32
4705;BME280;2366;51.332;6.610;2022-11-15T08:35:13;100744.69;;;15.74;78.12
4705;BME280;2366;51.332;6.610;2022-11-15T08:37:39;100741.28;;;16.67;74.98
4705;BME280;2366;51.332;6.610;2022-11-15T08:40:05;100738.25;;;16.51;72.94
4705;BME280;2366;51.332;6.610;2022-11-15T08:42:30;100736.28;;;16.11;73.51
4705;BME280;2366;51.332;6.610;2022-11-15T08:44:56;100728.22;;;15.57;74.10
4705;BME280;2366;51.332;6.610;2022-11-15T08:47:21;100730.94;;;15.24;74.92
4705;BME280;2366;51.332;6.610;2022-11-15T08:49:47;100725.16;;;15.07;75.69
4705;BME280;2366;51.332;6.610;2022-11-15T08:52:14;100723.22;;;14.87;76.14
4705;BME280;2366;51.332;6.610;2022-11-15T08:54:39;100720.75;;;14.72;76.92
4705;BME280;2366;51.332;6.610;2022-11-15T08:57:05;100706.72;;;14.70;77.82
4705;BME280;2366;51.332;6.610;2022-11-15T08:59:30;100715.44;;;14.72;77.47
4705;BME280;2366;51.332;6.610;2022-11-15T09:01:56;100714.94;;;14.78;78.04
4705;BME280;2366;51.332;6.610;2022-11-15T09:04:21;100718.34;;;14.92;78.35
4705;BME280;2366;51.332;6.610;2022-11-15T09:06:46;100705.22;;;15.11;77.94
4705;BME280;2366;51.332;6.610;2022-11-15T09:09:12;100706.16;;;15.33;77.15
4705;BME280;2366;51.332;6.610;2022-11-15T09:11:37;100705.81;;;15.70;76.18
4705;BME280;2366;51.332;6.610;2022-11-15T09:14:02;100711.81;;;16.15;75.91
4705;BME280;2366;51.332;6.610;2022-11-15T09:16:30;100716.69;;;16.73;74.31
4705;BME280;2366;51.332;6.610;2022-11-15T09:18:55;100716.25;;;16.99;72.89
4705;BME280;2366;51.332;6.610;2022-11-15T09:21:21;100710.72;;;16.70;71.36
4705;BME280;2366;51.332;6.610;2022-11-15T09:23:46;100707.41;;;16.77;72.16
4705;BME280;2366;51.332;6.610;2022-11-15T09:26:12;100710.00;;;16.89;73.03
4705;BME280;2366;51.332;6.610;2022-11-15T09:28:38;100704.25;;;16.93;72.41
4705;BME280;2366;51.332;6.610;2022-11-15T09:31:06;100702.50;;;16.82;71.67
4705;BME280;2366;51.332;6.610;2022-11-15T09:33:32;100702.03;;;16.77;71.52
4705;BME280;2366;51.332;6.610;2022-11-15T09:36:03;100707.16;;;16.80;72.74
4705;BME280;2366;51.332;6.610;2022-11-15T09:38:28;100701.03;;;16.69;70.84
4705;BME280;2366;51.332;6.610;2022-11-15T09:41:08;100690.81;;;16.32;70.07
4705;BME280;2366;51.332;6.610;2022-11-15T09:44:17;100677.00;;;16.27;70.73
4705;BME280;2366;51.332;6.610;2022-11-15T09:49:34;100666.75;;;16.11;70.18
4705;BME280;2366;51.332;6.610;2022-11-15T09:52:00;100665.59;;;16.04;69.58
4705;BME280;2366;51.332;6.610;2022-11-15T09:54:29;100670.94;;;16.04;68.94
4705;BME280;2366;51.332;6.610;2022-11-15T09:57:02;100664.16;;;15.99;68.31
4705;BME280;2366;51.332;6.610;2022-11-15T10:02:46;100652.28;;;15.92;66.29
4705;BME280;2366;51.332;6.610;2022-11-15T10:05:20;100651.19;;;15.95;65.83
4705;BME280;2366;51.332;6.610;2022-11-15T10:10:53;100646.88;;;15.82;64.30
4705;BME280;2366;51.332;6.610;2022-11-15T10:13:25;100640.06;;;15.78;64.40
4705;BME280;2366;51.332;6.610;2022-11-15T10:15:53;100628.88;;;15.85;64.62
4705;BME280;2366;51.332;6.610;2022-11-15T10:24:15;100611.66;;;15.77;62.25
4705;BME280;2366;51.332;6.610;2022-11-15T10:26:47;100609.59;;;15.70;61.33
4705;BME280;2366;51.332;6.610;2022-11-15T10:29:24;100610.72;;;15.67;61.84
4705;BME280;2366;51.332;6.610;2022-11-15T10:31:50;100618.50;;;15.70;61.18
4705;BME280;2366;51.332;6.610;2022-11-15T10:34:21;100620.28;;;15.70;61.27
4705;BME280;2366;51.332;6.610;2022-11-15T10:36:57;100619.13;;;15.63;61.84
4705;BME280;2366;51.332;6.610;2022-11-15T10:39:24;100610.38;;;15.60;61.15
4705;BME280;2366;51.332;6.610;2022-11-15T10:41:49;100607.19;;;15.67;60.95
4705;BME280;2366;51.332;6.610;2022-11-15T10:44:31;100603.69;;;15.66;60.99
4705;BME280;2366;51.332;6.610;2022-11-15T10:49:24;100595.91;;;15.74;60.28
4705;BME280;2366;51.332;6.610;2022-11-15T10:51:57;100587.38;;;15.69;60.48
4705;BME280;2366;51.332;6.610;2022-11-15T10:54:23;100578.31;;;15.60;59.74
4705;BME280;2366;51.332;6.610;2022-11-15T10:56:54;100584.34;;;15.74;58.25
4705;BME280;2366;51.332;6.610;2022-11-15T10:59:28;100581.91;;;15.71;58.59
4705;BME280;2366;51.332;6.610;2022-11-15T11:01:54;100582.66;;;15.73;59.07
4705;BME280;2366;51.332;6.610;2022-11-15T11:04:20;100575.38;;;15.75;58.85
4705;BME280;2366;51.332;6.610;2022-11-15T11:09:35;100568.06;;;15.77;58.02
4705;BME280;2366;51.332;6.610;2022-11-15T11:12:02;100575.00;;;15.89;58.45
4705;BME280;2366;51.332;6.610;2022-11-15T11:14:31;100569.03;;;15.76;58.44
4705;BME280;2366;51.332;6.610;2022-11-15T11:17:20;100566.50;;;15.74;58.25
4705;BME280;2366;51.332;6.610;2022-11-15T11:22:53;100557.38;;;15.77;58.01
4705;BME280;2366;51.332;6.610;2022-11-15T11:28:03;100567.47;;;15.73;57.19
4705;BME280;2366;51.332;6.610;2022-11-15T11:33:17;100553.03;;;15.65;56.26
4705;BME280;2366;51.332;6.610;2022-11-15T11:39:37;100553.38;;;15.71;55.18
4705;BME280;2366;51.332;6.610;2022-11-15T11:41:56;100540.47;;;15.76;55.65
4705;BME280;2366;51.332;6.610;2022-11-15T11:47:24;100543.66;;;15.91;54.79
4705;BME280;2366;51.332;6.610;2022-11-15T11:50:05;100545.69;;;15.99;54.12
4705;BME280;2366;51.332;6.610;2022-11-15T11:53:12;100542.59;;;16.04;53.32
4705;BME280;2366;51.332;6.610;2022-11-15T11:55:45;100532.75;;;16.04;52.96
4705;BME280;2366;51.332;6.610;2022-11-15T11:58:17;100530.19;;;16.02;52.42
4705;BME280;2366;51.332;6.610;2022-11-15T12:07:02;100513.63;;;16.09;51.03
4705;BME280;2366;51.332;6.610;2022-11-15T12:15:04;100490.09;;;16.33;49.42
4705;BME280;2366;51.332;6.610;2022-11-15T12:17:36;100483.31;;;16.29;49.37
4705;BME280;2366;51.332;6.610;2022-11-15T12:20:13;100474.28;;;16.30;48.03
4705;BME280;2366;51.332;6.610;2022-11-15T12:22:47;100465.31;;;16.41;49.03
4705;BME280;2366;51.332;6.610;2022-11-15T12:27:57;100471.66;;;16.40;48.94
4705;BME280;2366;51.332;6.610;2022-11-15T12:30:31;100470.41;;;16.44;48.26
4705;BME280;2366;51.332;6.610;2022-11-15T12:33:02;100463.38;;;16.53;47.44
4705;BME280;2366;51.332;6.610;2022-11-15T12:35:57;100464.78;;;16.57;47.60
4705;BME280;2366;51.332;6.610;2022-11-15T12:39:01;100450.56;;;16.66;47.09
4705;BME280;2366;51.332;6.610;2022-11-15T12:41:36;100449.84;;;16.64;47.31
4705;BME280;2366;51.332;6.610;2022-11-15T12:44:02;100433.38;;;16.69;46.13
4705;BME280;2366;51.332;6.610;2022-11-15T12:59:50;100409.88;;;16.82;46.56
4705;BME280;2366;51.332;6.610;2022-11-15T13:02:29;100403.97;;;16.88;46.98
4705;BME280;2366;51.332;6.610;2022-11-15T13:07:56;100396.50;;;16.82;47.59
4705;BME280;2366;51.332;6.610;2022-11-15T13:12:55;100386.88;;;16.79;47.71
4705;BME280;2366;51.332;6.610;2022-11-15T13:17:47;100379.00;;;16.97;47.85
4705;BME280;2366;51.332;6.610;2022-11-15T13:23:11;100370.69;;;16.91;48.67
4705;BME280;2366;51.332;6.610;2022-11-15T13:30:55;100366.72;;;17.14;48.50
4705;BME280;2366;51.332;6.610;2022-11-15T13:33:35;100370.50;;;17.21;48.37
4705;BME280;2366;51.332;6.610;2022-11-15T13:36:05;100358.50;;;17.25;48.98
4705;BME280;2366;51.332;6.610;2022-11-15T13:38:34;100361.69;;;17.39;48.88
4705;BME280;2366;51.332;6.610;2022-11-15T13:43:41;100334.25;;;17.27;48.73
4705;BME280;2366;51.332;6.610;2022-11-15T13:46:24;100339.94;;;17.14;48.97
4705;BME280;2366;51.332;6.610;2022-11-15T13:49:01;100322.50;;;17.00;50.11
4705;BME280;2366;51.332;6.610;2022-11-15T13:51:29;100317.59;;;16.96;50.42
4705;BME280;2366;51.332;6.610;2022-11-15T13:57:08;100313.06;;;16.87;50.61
4705;BME280;2366;51.332;6.610;2022-11-15T13:59:37;100305.03;;;16.96;51.18
4705;BME280;2366;51.332;6.610;2022-11-15T14:02:17;100299.94;;;17.03;50.87
4705;BME280;2366;51.332;6.610;2022-11-15T14:04:56;100301.03;;;17.10;50.65
4705;BME280;2366;51.332;6.610;2022-11-15T14:07:27;100302.75;;;17.11;50.73
4705;BME280;2366;51.332;6.610;2022-11-15T14:09:53;100294.28;;;17.06;50.54
4705;BME280;2366;51.332;6.610;2022-11-15T14:14:55;100283.88;;;17.03;50.44
4705;BME280;2366;51.332;6.610;2022-11-15T14:17:33;100281.13;;;16.85;50.63
4705;BME280;2366;51.332;6.610;2022-11-15T14:19:59;100274.75;;;16.86;50.95
4705;BME280;2366;51.332;6.610;2022-11-15T14:22:29;100272.09;;;16.67;51.31
4705;BME280;2366;51.332;6.610;2022-11-15T14:25:15;100278.72;;;16.72;51.83
4705;BME280;2366;51.332;6.610;2022-11-15T14:27:42;100262.50;;;16.74;51.84
4705;BME280;2366;51.332;6.610;2022-11-15T14:30:15;100260.53;;;16.76;51.73
4705;BME280;2366;51.332;6.610;2022-11-15T14:32:49;100249.41;;;16.80;51.71
4705;BME280;2366;51.332;6.610;2022-11-15T14:35:18;100250.38;;;16.79;52.19
4705;BME280;2366;51.332;6.610;2022-11-15T14:37:44;100259.84;;;16.83;51.77
4705;BME280;2366;51.332;6.610;2022-11-15T14:40:14;100251.34;;;16.78;52.69
4705;BME280;2366;51.332;6.610;2022-11-15T14:42:39;100240.53;;;16.80;52.26
4705;BME280;2366;51.332;6.610;2022-11-15T14:45:23;100242.06;;;16.82;52.46
4705;BME280;2366;51.332;6.610;2022-11-15T14:47:48;100238.84;;;16.79;52.61
4705;BME280;2366;51.332;6.610;2022-11-15T14:50:19;100235.44;;;16.87;52.30
4705;BME280;2366;51.332;6.610;2022-11-15T14:52:45;100236.28;;;16.87;52.72
4705;BME280;2366;51.332;6.610;2022-11-15T14:55:21;100232.94;;;16.85;52.56
4705;BME280;2366;51.332;6.610;2022-11-15T14:57:48;100229.56;;;16.83;52.93
4705;BME280;2366;51.332;6.610;2022-11-15T15:00:14;100221.38;;;16.75;53.23
4705;BME280;2366;51.332;6.610;2022-11-15T15:02:41;100219.41;;;16.77;53.43